sensor_id;sensor_type;location;lat;lon;timestamp;pressure;altitude;pressure_sealevel;temperature;humidity
20077;BME280;12348;42.710;23.378;2022-12-29T00:01:24;96085.81;;;3.78;100.00
20077;BME280;12348;42.710;23.378;2022-12-29T00:03:50;96081.50;;;3.77;100.00
20077;BME280;12348;42.710;23.378;2022-12-29T00:06:19;96081.50;;;3.77;100.00
20077;BME280;12348;42.710;23.378;2022-12-29T00:08:46;96079.19;;;3.80;100.00
20077;BME280;12348;42.710;23.378;2022-12-29T00:11:15;96088.91;;;3.75;100.00
20077;BME280;12348;42.710;23.378;2022-12-29T00:13:42;96081.50;;;3.77;100.00
20077;BME280;12348;42.710;23.378;2022-12-29T00:16:28;96086.69;;;3.72;100.00
20077;BME280;12348;42.710;23.378;2022-12-29T00:18:54;96092.00;;;3.72;100.00
20077;BME280;12348;42.710;23.378;2022-12-29T00:21:23;96084.00;;;3.72;100.00
20077;BME280;12348;42.710;23.378;2022-12-29T00:24:12;96083.06;;;3.66;100.00
20077;BME280;12348;42.710;23.378;2022-12-29T00:27:04;96081.41;;;3.65;100.00
20077;BME280;12348;42.710;23.378;2022-12-29T00:29:53;96084.50;;;3.99;100.00
20077;BME280;12348;42.710;23.378;2022-12-29T00:32:37;96095.78;;;3.82;100.00
20077;BME280;12348;42.710;23.378;2022-12-29T00:35:25;96096.88;;;3.75;100.00
20077;BME280;12348;42.710;23.378;2022-12-29T00:37:55;96094.00;;;3.76;100.00
20077;BME280;12348;42.710;23.378;2022-12-29T00:40:41;96093.19;;;3.76;100.00
20077;BME280;12348;42.710;23.378;2022-12-29T00:43:25;96097.56;;;3.88;100.00
20077;BME280;12348;42.710;23.378;2022-12-29T00:46:09;96104.13;;;3.86;100.00
20077;BME280;12348;42.710;23.378;2022-12-29T00:48:36;96100.28;;;3.82;100.00
20077;BME280;12348;42.710;23.378;2022-12-29T00:51:20;96098.31;;;3.77;100.00
20077;BME280;12348;42.710;23.378;2022-12-29T00:53:49;96098.38;;;3.71;100.00
20077;BME280;12348;42.710;23.378;2022-12-29T00:56:15;96104.28;;;3.73;100.00
20077;BME280;12348;42.710;23.378;2022-12-29T00:58:42;96102.34;;;3.61;100.00
20077;BME280;12348;42.710;23.378;2022-12-29T01:01:09;96105.25;;;3.60;100.00
20077;BME280;12348;42.710;23.378;2022-12-29T01:03:37;96104.81;;;3.63;100.00
20077;BME280;12348;42.710;23.378;2022-12-29T01:06:06;96105.63;;;3.63;100.00
20077;BME280;12348;42.710;23.378;2022-12-29T01:08:34;96101.91;;;3.64;100.00
20077;BME280;12348;42.710;23.378;2022-12-29T01:11:04;96098.69;;;3.62;100.00
20077;BME280;12348;42.710;23.378;2022-12-29T01:13:30;96099.91;;;3.60;100.00
20077;BME280;12348;42.710;23.378;2022-12-29T01:15:57;96087.72;;;3.52;100.00
20077;BME280;12348;42.710;23.378;2022-12-29T01:18:25;96091.56;;;3.56;100.00
20077;BME280;12348;42.710;23.378;2022-12-29T01:20:58;96083.44;;;3.51;100.00
20077;BME280;12348;42.710;23.378;2022-12-29T01:23:25;96095.91;;;3.51;100.00
20077;BME280;12348;42.710;23.378;2022-12-29T01:25:52;96088.81;;;3.45;100.00
20077;BME280;12348;42.710;23.378;2022-12-29T01:28:20;96091.69;;;3.43;100.00
20077;BME280;12348;42.710;23.378;2022-12-29T01:30:47;96083.25;;;3.46;100.00
20077;BME280;12348;42.710;23.378;2022-12-29T01:33:14;96079.56;;;3.47;100.00
20077;BME280;12348;42.710;23.378;2022-12-29T01:35:40;96076.91;;;3.47;100.00
20077;BME280;12348;42.710;23.378;2022-12-29T01:38:07;96084.00;;;3.53;100.00
20077;BME280;12348;42.710;23.378;2022-12-29T01:40:43;96081.78;;;3.50;100.00
20077;BME280;12348;42.710;23.378;2022-12-29T01:43:12;96075.81;;;3.55;100.00
20077;BME280;12348;42.710;23.378;2022-12-29T01:45:44;96079.13;;;3.50;100.00
20077;BME280;12348;42.710;23.378;2022-12-29T01:48:13;96073.44;;;3.47;100.00
20077;BME280;12348;42.710;23.378;2022-12-29T01:50:42;96059.53;;;3.45;100.00
20077;BME280;12348;42.710;23.378;2022-12-29T01:53:11;96056.66;;;3.46;100.00
20077;BME280;12348;42.710;23.378;2022-12-29T01:55:42;96058.34;;;3.40;100.00
20077;BME280;12348;42.710;23.378;2022-12-29T01:58:12;96055.22;;;3.62;100.00
20077;BME280;12348;42.710;23.378;2022-12-29T02:00:39;96061.16;;;3.64;100.00
20077;BME280;12348;42.710;23.378;2022-12-29T02:03:08;96057.00;;;3.50;100.00
20077;BME280;12348;42.710;23.378;2022-12-29T02:05:39;96052.22;;;3.40;100.00
20077;BME280;12348;42.710;23.378;2022-12-29T02:08:09;96048.00;;;3.32;100.00
20077;BME280;12348;42.710;23.378;2022-12-29T02:10:37;96047.03;;;3.27;100.00
20077;BME280;12348;42.710;23.378;2022-12-29T02:13:05;96054.41;;;3.25;100.00
20077;BME280;12348;42.710;23.378;2022-12-29T02:15:36;96058.41;;;3.15;100.00
20077;BME280;12348;42.710;23.378;2022-12-29T02:18:28;96055.75;;;3.15;100.00
20077;BME280;12348;42.710;23.378;2022-12-29T02:27:51;96055.03;;;3.45;100.00
20077;BME280;12348;42.710;23.378;2022-12-29T02:30:41;96054.22;;;3.45;100.00
20077;BME280;12348;42.710;23.378;2022-12-29T02:33:18;96057.59;;;3.33;100.00
20077;BME280;12348;42.710;23.378;2022-12-29T02:35:54;96050.72;;;3.26;100.00
20077;BME280;12348;42.710;23.378;2022-12-29T02:38:46;96054.41;;;3.25;100.00
20077;BME280;12348;42.710;23.378;2022-12-29T02:41:19;96048.50;;;3.23;100.00
20077;BME280;12348;42.710;23.378;2022-12-29T02:43:51;96046.94;;;3.15;100.00
20077;BME280;12348;42.710;23.378;2022-12-29T02:46:27;96047.81;;;3.09;100.00
20077;BME280;12348;42.710;23.378;2022-12-29T02:49:03;96050.91;;;3.06;100.00
20077;BME280;12348;42.710;23.378;2022-12-29T02:51:35;96052.94;;;3.10;100.00
20077;BME280;12348;42.710;23.378;2022-12-29T02:54:04;96046.28;;;3.20;100.00
20077;BME280;12348;42.710;23.378;2022-12-29T02:56:48;96039.19;;;3.32;100.00
20077;BME280;12348;42.710;23.378;2022-12-29T02:59:16;96043.19;;;3.41;100.00
20077;BME280;12348;42.710;23.378;2022-12-29T03:02:05;96039.56;;;3.35;100.00
20077;BME280;12348;42.710;23.378;2022-12-29T03:04:51;96041.75;;;3.20;100.00
20077;BME280;12348;42.710;23.378;2022-12-29T03:07:24;96032.97;;;3.20;100.00
20077;BME280;12348;42.710;23.378;2022-12-29T03:10:00;96035.94;;;3.11;100.00
20077;BME280;12348;42.710;23.378;2022-12-29T03:12:30;96042.56;;;3.02;100.00
20077;BME280;12348;42.710;23.378;2022-12-29T03:15:21;96039.00;;;2.90;100.00
20077;BME280;12348;42.710;23.378;2022-12-29T03:18:13;96035.19;;;2.79;100.00
20077;BME280;12348;42.710;23.378;2022-12-29T03:20:47;96031.72;;;2.79;100.00
20077;BME280;12348;42.710;23.378;2022-12-29T03:23:16;96033.34;;;2.80;100.00
20077;BME280;12348;42.710;23.378;2022-12-29T03:25:47;96036.56;;;2.88;100.00
20077;BME280;12348;42.710;23.378;2022-12-29T03:28:18;96030.84;;;2.85;100.00
20077;BME280;12348;42.710;23.378;2022-12-29T03:30:47;96030.72;;;2.98;100.00
20077;BME280;12348;42.710;23.378;2022-12-29T03:33:18;96032.38;;;2.99;100.00
20077;BME280;12348;42.710;23.378;2022-12-29T03:35:48;96029.72;;;2.99;100.00
20077;BME280;12348;42.710;23.378;2022-12-29T03:38:19;96029.78;;;3.11;100.00
20077;BME280;12348;42.710;23.378;2022-12-29T03:40:50;96029.78;;;3.11;100.00
20077;BME280;12348;42.710;23.378;2022-12-29T03:43:18;96036.97;;;3.10;100.00
20077;BME280;12348;42.710;23.378;2022-12-29T03:45:46;96042.72;;;3.07;100.00
20077;BME280;12348;42.710;23.378;2022-12-29T03:48:14;96040.34;;;2.99;100.00
20077;BME280;12348;42.710;23.378;2022-12-29T03:50:41;96040.84;;;2.89;100.00
20077;BME280;12348;42.710;23.378;2022-12-29T03:53:08;96045.34;;;2.89;100.00
20077;BME280;12348;42.710;23.378;2022-12-29T03:55:34;96046.00;;;2.84;100.00
20077;BME280;12348;42.710;23.378;2022-12-29T03:58:01;96055.69;;;2.72;100.00
20077;BME280;12348;42.710;23.378;2022-12-29T04:00:28;96055.22;;;2.82;100.00
20077;BME280;12348;42.710;23.378;2022-12-29T04:02:55;96070.75;;;2.85;100.00
20077;BME280;12348;42.710;23.378;2022-12-29T04:05:23;96058.75;;;2.76;100.00
20077;BME280;12348;42.710;23.378;2022-12-29T04:07:50;96061.94;;;3.09;100.00
20077;BME280;12348;42.710;23.378;2022-12-29T04:10:17;96047.69;;;3.22;100.00
20077;BME280;12348;42.710;23.378;2022-12-29T04:12:44;96053.41;;;3.01;100.00
20077;BME280;12348;42.710;23.378;2022-12-29T04:15:12;96049.91;;;2.82;100.00
20077;BME280;12348;42.710;23.378;2022-12-29T04:17:38;96054.91;;;2.72;100.00
20077;BME280;12348;42.710;23.378;2022-12-29T04:20:07;96057.66;;;2.58;100.00
20077;BME280;12348;42.710;23.378;2022-12-29T04:22:59;96064.88;;;2.51;100.00
20077;BME280;12348;42.710;23.378;2022-12-29T04:25:26;96056.72;;;2.46;100.00
20077;BME280;12348;42.710;23.378;2022-12-29T04:27:53;96055.94;;;2.39;100.00
20077;BME280;12348;42.710;23.378;2022-12-29T04:30:20;96063.19;;;2.32;100.00
20077;BME280;12348;42.710;23.378;2022-12-29T04:32:48;96066.50;;;2.52;100.00
20077;BME280;12348;42.710;23.378;2022-12-29T04:35:15;96066.91;;;2.81;100.00
20077;BME280;12348;42.710;23.378;2022-12-29T04:37:41;96067.00;;;2.67;100.00
20077;BME280;12348;42.710;23.378;2022-12-29T04:40:11;96069.59;;;2.74;100.00
20077;BME280;12348;42.710;23.378;2022-12-29T04:42:38;96079.25;;;2.68;100.00
20077;BME280;12348;42.710;23.378;2022-12-29T04:45:06;96070.09;;;2.64;100.00
20077;BME280;12348;42.710;23.378;2022-12-29T04:47:33;96075.47;;;2.58;100.00
20077;BME280;12348;42.710;23.378;2022-12-29T04:50:00;96077.75;;;2.54;100.00
20077;BME280;12348;42.710;23.378;2022-12-29T04:52:27;96081.63;;;2.52;100.00
20077;BME280;12348;42.710;23.378;2022-12-29T04:54:53;96082.50;;;2.46;100.00
20077;BME280;12348;42.710;23.378;2022-12-29T04:57:21;96087.81;;;2.46;100.00
20077;BME280;12348;42.710;23.378;2022-12-29T04:59:48;96085.75;;;2.48;100.00
20077;BME280;12348;42.710;23.378;2022-12-29T05:02:15;96092.69;;;2.49;100.00
20077;BME280;12348;42.710;23.378;2022-12-29T05:04:42;96083.00;;;2.86;100.00
20077;BME280;12348;42.710;23.378;2022-12-29T05:07:09;96083.41;;;2.89;100.00
20077;BME280;12348;42.710;23.378;2022-12-29T05:09:36;96080.88;;;2.95;100.00
20077;BME280;12348;42.710;23.378;2022-12-29T05:12:03;96087.75;;;2.84;100.00
20077;BME280;12348;42.710;23.378;2022-12-29T05:14:32;96080.00;;;2.76;100.00
20077;BME280;12348;42.710;23.378;2022-12-29T05:16:59;96088.44;;;2.73;100.00
20077;BME280;12348;42.710;23.378;2022-12-29T05:19:25;96088.06;;;2.69;100.00
20077;BME280;12348;42.710;23.378;2022-12-29T05:21:52;96091.72;;;2.68;100.00
20077;BME280;12348;42.710;23.378;2022-12-29T05:24:19;96081.59;;;2.58;100.00
20077;BME280;12348;42.710;23.378;2022-12-29T05:26:46;96082.19;;;2.60;100.00
20077;BME280;12348;42.710;23.378;2022-12-29T05:29:13;96083.06;;;2.79;100.00
20077;BME280;12348;42.710;23.378;2022-12-29T05:31:41;96086.44;;;2.93;100.00
20077;BME280;12348;42.710;23.378;2022-12-29T05:34:09;96085.34;;;2.76;100.00
20077;BME280;12348;42.710;23.378;2022-12-29T05:36:35;96093.44;;;2.62;100.00
20077;BME280;12348;42.710;23.378;2022-12-29T05:39:02;96097.28;;;2.66;100.00
20077;BME280;12348;42.710;23.378;2022-12-29T05:41:29;96092.94;;;2.72;100.00
20077;BME280;12348;42.710;23.378;2022-12-29T05:43:56;96086.09;;;2.83;100.00
20077;BME280;12348;42.710;23.378;2022-12-29T05:46:23;96094.69;;;2.85;100.00
20077;BME280;12348;42.710;23.378;2022-12-29T05:48:51;96091.38;;;2.89;100.00
20077;BME280;12348;42.710;23.378;2022-12-29T05:51:17;96098.13;;;2.92;100.00
20077;BME280;12348;42.710;23.378;2022-12-29T05:53:44;96099.78;;;2.86;100.00
20077;BME280;12348;42.710;23.378;2022-12-29T05:56:11;96107.94;;;2.91;100.00
20077;BME280;12348;42.710;23.378;2022-12-29T05:58:38;96102.78;;;2.97;100.00
20077;BME280;12348;42.710;23.378;2022-12-29T06:01:05;96102.25;;;2.88;100.00
20077;BME280;12348;42.710;23.378;2022-12-29T06:03:31;96107.09;;;2.91;100.00
20077;BME280;12348;42.710;23.378;2022-12-29T06:06:00;96105.16;;;3.05;100.00
20077;BME280;12348;42.710;23.378;2022-12-29T06:08:26;96103.59;;;3.22;100.00
20077;BME280;12348;42.710;23.378;2022-12-29T06:10:53;96098.88;;;3.43;100.00
20077;BME280;12348;42.710;23.378;2022-12-29T06:13:20;96103.84;;;3.57;100.00
20077;BME280;12348;42.710;23.378;2022-12-29T06:15:48;96107.63;;;3.86;100.00
20077;BME280;12348;42.710;23.378;2022-12-29T06:18:15;96110.44;;;4.22;100.00
20077;BME280;12348;42.710;23.378;2022-12-29T06:20:42;96110.56;;;4.87;100.00
20077;BME280;12348;42.710;23.378;2022-12-29T06:23:11;96102.25;;;5.42;100.00
20077;BME280;12348;42.710;23.378;2022-12-29T06:25:38;96106.44;;;5.62;100.00
20077;BME280;12348;42.710;23.378;2022-12-29T06:28:05;96108.47;;;6.06;100.00
20077;BME280;12348;42.710;23.378;2022-12-29T06:30:32;96101.31;;;5.72;100.00
20077;BME280;12348;42.710;23.378;2022-12-29T06:33:00;96108.28;;;5.26;100.00
20077;BME280;12348;42.710;23.378;2022-12-29T06:35:27;96109.88;;;5.03;100.00
20077;BME280;12348;42.710;23.378;2022-12-29T06:37:53;96108.47;;;4.89;100.00
20077;BME280;12348;42.710;23.378;2022-12-29T06:40:22;96110.56;;;4.87;100.00
20077;BME280;12348;42.710;23.378;2022-12-29T06:42:49;96113.13;;;4.82;100.00
20077;BME280;12348;42.710;23.378;2022-12-29T06:45:16;96121.56;;;4.79;100.00
20077;BME280;12348;42.710;23.378;2022-12-29T06:47:43;96111.91;;;4.78;100.00
20077;BME280;12348;42.710;23.378;2022-12-29T06:50:10;96123.91;;;4.87;100.00
20077;BME280;12348;42.710;23.378;2022-12-29T06:52:36;96123.69;;;5.00;100.00
20077;BME280;12348;42.710;23.378;2022-12-29T06:55:04;96121.38;;;5.86;100.00
20077;BME280;12348;42.710;23.378;2022-12-29T06:57:32;96119.41;;;7.41;100.00
20077;BME280;12348;42.710;23.378;2022-12-29T06:59:59;96115.22;;;8.72;100.00
20077;BME280;12348;42.710;23.378;2022-12-29T07:02:26;96118.00;;;9.84;100.00
20077;BME280;12348;42.710;23.378;2022-12-29T07:04:52;96121.63;;;10.78;100.00
20077;BME280;12348;42.710;23.378;2022-12-29T07:07:19;96122.50;;;11.80;87.14
20077;BME280;12348;42.710;23.378;2022-12-29T07:09:46;96119.28;;;11.53;80.24
20077;BME280;12348;42.710;23.378;2022-12-29T07:12:13;96120.88;;;11.38;80.40
20077;BME280;12348;42.710;23.378;2022-12-29T07:14:42;96123.56;;;11.74;80.78
20077;BME280;12348;42.710;23.378;2022-12-29T07:17:08;96112.06;;;12.44;77.13
20077;BME280;12348;42.710;23.378;2022-12-29T07:19:35;96113.50;;;12.80;74.66
20077;BME280;12348;42.710;23.378;2022-12-29T07:22:02;96114.59;;;12.79;73.87
20077;BME280;12348;42.710;23.378;2022-12-29T07:24:29;96110.53;;;13.90;71.22
20077;BME280;12348;42.710;23.378;2022-12-29T07:26:55;96114.81;;;14.68;66.44
20077;BME280;12348;42.710;23.378;2022-12-29T07:29:22;96109.72;;;13.89;69.53
20077;BME280;12348;42.710;23.378;2022-12-29T07:31:50;96116.91;;;14.71;66.72
20077;BME280;12348;42.710;23.378;2022-12-29T07:34:17;96108.31;;;15.58;61.25
20077;BME280;12348;42.710;23.378;2022-12-29T07:36:44;96111.53;;;15.93;60.11
20077;BME280;12348;42.710;23.378;2022-12-29T07:39:11;96109.47;;;15.19;62.12
20077;BME280;12348;42.710;23.378;2022-12-29T07:41:38;96113.84;;;15.86;60.87
20077;BME280;12348;42.710;23.378;2022-12-29T07:44:05;96119.94;;;14.88;64.02
20077;BME280;12348;42.710;23.378;2022-12-29T07:46:31;96119.59;;;14.76;64.91
20077;BME280;12348;42.710;23.378;2022-12-29T07:49:00;96118.41;;;16.04;60.69
20077;BME280;12348;42.710;23.378;2022-12-29T07:51:26;96115.09;;;16.62;56.66
20077;BME280;12348;42.710;23.378;2022-12-29T07:53:53;96113.28;;;16.71;57.61
20077;BME280;12348;42.710;23.378;2022-12-29T07:56:20;96124.56;;;14.88;61.11
20077;BME280;12348;42.710;23.378;2022-12-29T07:58:47;96120.66;;;14.75;63.09
20077;BME280;12348;42.710;23.378;2022-12-29T08:01:13;96123.47;;;15.08;63.90
20077;BME280;12348;42.710;23.378;2022-12-29T08:03:40;96121.88;;;14.40;65.64
20077;BME280;12348;42.710;23.378;2022-12-29T08:06:10;96131.22;;;13.46;69.93
20077;BME280;12348;42.710;23.378;2022-12-29T08:08:37;96124.53;;;14.45;65.89
20077;BME280;12348;42.710;23.378;2022-12-29T08:11:04;96125.09;;;15.27;62.08
20077;BME280;12348;42.710;23.378;2022-12-29T08:13:31;96119.41;;;16.08;59.83
20077;BME280;12348;42.710;23.378;2022-12-29T08:15:58;96116.53;;;16.74;57.16
20077;BME280;12348;42.710;23.378;2022-12-29T08:18:25;96109.09;;;18.05;54.30
20077;BME280;12348;42.710;23.378;2022-12-29T08:20:51;96112.31;;;18.56;50.92
20077;BME280;12348;42.710;23.378;2022-12-29T08:23:20;96112.34;;;19.48;48.83
20077;BME280;12348;42.710;23.378;2022-12-29T08:25:47;96110.50;;;20.04;45.55
20077;BME280;12348;42.710;23.378;2022-12-29T08:28:13;96118.56;;;18.96;47.38
20077;BME280;12348;42.710;23.378;2022-12-29T08:30:40;96109.06;;;17.74;51.50
20077;BME280;12348;42.710;23.378;2022-12-29T08:33:07;96103.59;;;18.85;49.63
20077;BME280;12348;42.710;23.378;2022-12-29T08:35:34;96116.06;;;17.44;51.53
20077;BME280;12348;42.710;23.378;2022-12-29T08:38:00;96105.31;;;15.92;57.57
20077;BME280;12348;42.710;23.378;2022-12-29T08:40:29;96115.16;;;14.61;63.79
20077;BME280;12348;42.710;23.378;2022-12-29T08:42:55;96104.81;;;14.15;67.39
20077;BME280;12348;42.710;23.378;2022-12-29T08:45:22;96109.25;;;14.97;63.88
20077;BME280;12348;42.710;23.378;2022-12-29T08:47:50;96115.19;;;14.80;64.79
20077;BME280;12348;42.710;23.378;2022-12-29T08:50:17;96103.84;;;16.55;58.99
20077;BME280;12348;42.710;23.378;2022-12-29T08:52:43;96105.22;;;16.66;59.61
20077;BME280;12348;42.710;23.378;2022-12-29T08:55:10;96095.97;;;16.26;58.99
20077;BME280;12348;42.710;23.378;2022-12-29T08:57:38;96111.63;;;16.98;58.10
20077;BME280;12348;42.710;23.378;2022-12-29T09:00:06;96100.25;;;17.77;55.26
20077;BME280;12348;42.710;23.378;2022-12-29T09:02:33;96096.78;;;18.56;52.07
20077;BME280;12348;42.710;23.378;2022-12-29T09:05:00;96089.63;;;18.29;52.64
20077;BME280;12348;42.710;23.378;2022-12-29T09:07:27;96098.22;;;18.62;51.84
20077;BME280;12348;42.710;23.378;2022-12-29T09:09:54;96093.03;;;18.44;52.40
20077;BME280;12348;42.710;23.378;2022-12-29T09:12:21;96090.47;;;17.54;54.50
20077;BME280;12348;42.710;23.378;2022-12-29T09:14:49;96092.16;;;17.63;55.65
20077;BME280;12348;42.710;23.378;2022-12-29T09:17:16;96082.53;;;17.88;53.94
20077;BME280;12348;42.710;23.378;2022-12-29T09:20:00;96084.16;;;18.78;51.69
20077;BME280;12348;42.710;23.378;2022-12-29T09:22:27;96075.91;;;17.13;54.58
20077;BME280;12348;42.710;23.378;2022-12-29T09:24:53;96083.19;;;17.40;55.70
20077;BME280;12348;42.710;23.378;2022-12-29T09:27:20;96072.13;;;17.90;52.47
20077;BME280;12348;42.710;23.378;2022-12-29T09:29:48;96072.72;;;18.58;50.98
20077;BME280;12348;42.710;23.378;2022-12-29T09:32:15;96081.16;;;18.97;48.64
20077;BME280;12348;42.710;23.378;2022-12-29T09:34:42;96075.06;;;18.91;50.07
20077;BME280;12348;42.710;23.378;2022-12-29T09:37:08;96079.72;;;18.91;52.38
20077;BME280;12348;42.710;23.378;2022-12-29T09:39:35;96068.97;;;19.46;50.79
20077;BME280;12348;42.710;23.378;2022-12-29T09:42:06;96066.97;;;18.20;51.00
20077;BME280;12348;42.710;23.378;2022-12-29T09:44:46;96065.44;;;18.36;53.21
20077;BME280;12348;42.710;23.378;2022-12-29T09:47:17;96064.84;;;17.10;54.60
20077;BME280;12348;42.710;23.378;2022-12-29T09:49:47;96054.19;;;17.89;52.88
20077;BME280;12348;42.710;23.378;2022-12-29T09:52:19;96059.47;;;18.92;50.23
20077;BME280;12348;42.710;23.378;2022-12-29T09:54:51;96051.00;;;18.36;51.40
20077;BME280;12348;42.710;23.378;2022-12-29T09:57:24;96047.81;;;17.72;53.50
20077;BME280;12348;42.710;23.378;2022-12-29T09:59:55;96049.94;;;17.52;54.34
20077;BME280;12348;42.710;23.378;2022-12-29T10:02:32;96034.31;;;17.89;55.05
20077;BME280;12348;42.710;23.378;2022-12-29T10:05:02;96040.75;;;17.71;52.92
20077;BME280;12348;42.710;23.378;2022-12-29T10:07:36;96038.50;;;17.73;53.23
20077;BME280;12348;42.710;23.378;2022-12-29T10:10:16;96033.81;;;17.87;53.65
20077;BME280;12348;42.710;23.378;2022-12-29T10:12:59;96038.66;;;17.99;53.66
20077;BME280;12348;42.710;23.378;2022-12-29T10:15:43;96029.09;;;17.25;54.04
20077;BME280;12348;42.710;23.378;2022-12-29T10:18:23;96032.72;;;16.62;56.16
20077;BME280;12348;42.710;23.378;2022-12-29T10:20:58;96032.16;;;15.68;60.24
20077;BME280;12348;42.710;23.378;2022-12-29T10:23:30;96026.53;;;17.06;57.51
20077;BME280;12348;42.710;23.378;2022-12-29T10:25:59;96016.91;;;17.45;55.69
20077;BME280;12348;42.710;23.378;2022-12-29T10:28:34;96015.50;;;17.79;55.23
20077;BME280;12348;42.710;23.378;2022-12-29T10:31:05;96008.22;;;17.97;54.80
20077;BME280;12348;42.710;23.378;2022-12-29T10:33:39;96016.34;;;18.36;53.17
20077;BME280;12348;42.710;23.378;2022-12-29T10:36:13;96013.31;;;18.47;52.47
20077;BME280;12348;42.710;23.378;2022-12-29T10:38:47;96007.97;;;17.76;54.75
20077;BME280;12348;42.710;23.378;2022-12-29T10:41:20;96007.31;;;16.03;60.25
20077;BME280;12348;42.710;23.378;2022-12-29T10:43:50;96009.81;;;14.54;63.29
20077;BME280;12348;42.710;23.378;2022-12-29T10:46:19;95997.50;;;15.46;62.18
20077;BME280;12348;42.710;23.378;2022-12-29T10:48:47;95996.75;;;16.29;60.38
20077;BME280;12348;42.710;23.378;2022-12-29T10:51:20;95994.09;;;16.23;59.90
20077;BME280;12348;42.710;23.378;2022-12-29T10:53:49;95992.78;;;16.35;58.84
20077;BME280;12348;42.710;23.378;2022-12-29T10:56:29;95981.53;;;16.64;59.08
20077;BME280;12348;42.710;23.378;2022-12-29T10:59:02;95995.25;;;16.95;58.88
20077;BME280;12348;42.710;23.378;2022-12-29T11:01:42;95982.44;;;16.09;58.59
20077;BME280;12348;42.710;23.378;2022-12-29T11:04:29;95974.81;;;15.70;61.61
20077;BME280;12348;42.710;23.378;2022-12-29T11:07:00;95971.19;;;15.88;61.73
20077;BME280;12348;42.710;23.378;2022-12-29T11:09:29;95973.88;;;14.44;67.58
20077;BME280;12348;42.710;23.378;2022-12-29T11:11:57;95970.69;;;14.42;69.13
20077;BME280;12348;42.710;23.378;2022-12-29T11:14:28;95966.38;;;15.25;65.41
20077;BME280;12348;42.710;23.378;2022-12-29T11:16:57;95963.38;;;15.73;65.52
20077;BME280;12348;42.710;23.378;2022-12-29T11:19:27;95963.44;;;16.59;63.18
20077;BME280;12348;42.710;23.378;2022-12-29T11:22:12;95960.47;;;16.69;61.66
20077;BME280;12348;42.710;23.378;2022-12-29T11:24:44;95963.75;;;16.08;61.29
20077;BME280;12348;42.710;23.378;2022-12-29T11:27:14;95959.00;;;14.98;66.15
20077;BME280;12348;42.710;23.378;2022-12-29T11:29:43;95959.97;;;15.35;66.03
20077;BME280;12348;42.710;23.378;2022-12-29T11:32:12;95959.97;;;15.48;64.66
20077;BME280;12348;42.710;23.378;2022-12-29T11:34:40;95955.56;;;16.21;63.96
20077;BME280;12348;42.710;23.378;2022-12-29T11:37:12;95953.19;;;16.42;63.17
20077;BME280;12348;42.710;23.378;2022-12-29T11:39:41;95953.09;;;16.84;61.63
20077;BME280;12348;42.710;23.378;2022-12-29T11:42:15;95938.63;;;16.97;61.10
20077;BME280;12348;42.710;23.378;2022-12-29T11:44:44;95937.41;;;16.67;61.86
20077;BME280;12348;42.710;23.378;2022-12-29T11:47:20;95942.66;;;15.91;65.81
20077;BME280;12348;42.710;23.378;2022-12-29T11:49:56;95937.28;;;15.72;65.31
20077;BME280;12348;42.710;23.378;2022-12-29T11:52:24;95946.00;;;16.24;64.41
20077;BME280;12348;42.710;23.378;2022-12-29T11:54:53;95946.56;;;16.35;64.16
20077;BME280;12348;42.710;23.378;2022-12-29T11:57:21;95941.28;;;16.52;63.53
20077;BME280;12348;42.710;23.378;2022-12-29T11:59:50;95940.31;;;16.48;63.93
20077;BME280;12348;42.710;23.378;2022-12-29T12:02:40;95937.94;;;15.22;69.78
20077;BME280;12348;42.710;23.378;2022-12-29T12:05:20;95937.63;;;14.77;73.56
20077;BME280;12348;42.710;23.378;2022-12-29T12:07:51;95938.81;;;14.71;74.14
20077;BME280;12348;42.710;23.378;2022-12-29T12:10:25;95930.53;;;14.44;76.63
20077;BME280;12348;42.710;23.378;2022-12-29T12:13:03;95935.75;;;14.59;75.71
20077;BME280;12348;42.710;23.378;2022-12-29T12:15:36;95929.59;;;14.72;74.96
20077;BME280;12348;42.710;23.378;2022-12-29T12:18:10;95927.25;;;14.98;73.62
20077;BME280;12348;42.710;23.378;2022-12-29T12:20:45;95929.38;;;14.12;76.29
20077;BME280;12348;42.710;23.378;2022-12-29T12:23:25;95928.69;;;13.34;80.09
20077;BME280;12348;42.710;23.378;2022-12-29T12:25:59;95919.03;;;13.52;80.55
20077;BME280;12348;42.710;23.378;2022-12-29T12:28:34;95919.13;;;13.13;82.73
20077;BME280;12348;42.710;23.378;2022-12-29T12:31:06;95908.84;;;13.15;82.87
20077;BME280;12348;42.710;23.378;2022-12-29T12:33:44;95921.44;;;13.01;83.66
20077;BME280;12348;42.710;23.378;2022-12-29T12:36:32;95912.81;;;13.23;85.12
20077;BME280;12348;42.710;23.378;2022-12-29T12:39:11;95916.03;;;13.54;81.97
20077;BME280;12348;42.710;23.378;2022-12-29T12:41:48;95917.53;;;13.12;82.36
20077;BME280;12348;42.710;23.378;2022-12-29T12:44:24;95918.63;;;13.11;83.11
20077;BME280;12348;42.710;23.378;2022-12-29T12:47:15;95914.25;;;13.15;82.02
20077;BME280;12348;42.710;23.378;2022-12-29T12:50:08;95912.78;;;13.28;81.18
20077;BME280;12348;42.710;23.378;2022-12-29T12:52:52;95912.34;;;13.45;81.05
20077;BME280;12348;42.710;23.378;2022-12-29T12:55:46;95912.78;;;13.28;80.05
20077;BME280;12348;42.710;23.378;2022-12-29T12:58:24;95913.78;;;13.08;82.20
20077;BME280;12348;42.710;23.378;2022-12-29T13:01:08;95912.28;;;12.97;83.52
20077;BME280;12348;42.710;23.378;2022-12-29T13:03:48;95913.44;;;12.56;84.80
20077;BME280;12348;42.710;23.378;2022-12-29T13:06:26;95911.28;;;12.19;88.73
20077;BME280;12348;42.710;23.378;2022-12-29T13:09:33;95915.81;;;11.84;89.93
20077;BME280;12348;42.710;23.378;2022-12-29T13:12:12;95921.81;;;11.56;93.24
20077;BME280;12348;42.710;23.378;2022-12-29T13:14:53;95907.84;;;11.44;95.70
20077;BME280;12348;42.710;23.378;2022-12-29T13:17:27;95904.97;;;11.20;96.43